sensor_id;sensor_type;location;lat;lon;timestamp;pressure;altitude;pressure_sealevel;temperature;humidity
5609;BME280;2826;51.354;9.588;2024-02-16T00:02:00;97903.53;;;13.74;68.75
5609;BME280;2826;51.354;9.588;2024-02-16T00:04:27;97905.13;;;13.77;69.01
5609;BME280;2826;51.354;9.588;2024-02-16T00:06:54;97893.59;;;13.81;68.26
5609;BME280;2826;51.354;9.588;2024-02-16T00:09:21;97893.59;;;13.81;68.28
5609;BME280;2826;51.354;9.588;2024-02-16T00:11:49;97895.38;;;13.80;67.77
5609;BME280;2826;51.354;9.588;2024-02-16T00:14:18;97896.13;;;13.82;67.75
5609;BME280;2826;51.354;9.588;2024-02-16T00:16:45;97903.09;;;13.82;67.76
5609;BME280;2826;51.354;9.588;2024-02-16T00:19:11;97905.69;;;13.82;67.56
5609;BME280;2826;51.354;9.588;2024-02-16T00:21:38;97910.81;;;13.83;67.26
5609;BME280;2826;51.354;9.588;2024-02-16T00:24:07;97910.00;;;13.83;67.41
5609;BME280;2826;51.354;9.588;2024-02-16T00:26:34;97900.41;;;13.83;66.71
5609;BME280;2826;51.354;9.588;2024-02-16T00:29:02;97889.97;;;13.83;66.72
5609;BME280;2826;51.354;9.588;2024-02-16T00:31:30;97882.59;;;13.76;66.58
5609;BME280;2826;51.354;9.588;2024-02-16T00:33:56;97890.41;;;13.76;67.04
5609;BME280;2826;51.354;9.588;2024-02-16T00:36:23;97894.91;;;13.74;66.68
5609;BME280;2826;51.354;9.588;2024-02-16T00:38:50;97893.41;;;13.69;66.93
5609;BME280;2826;51.354;9.588;2024-02-16T00:41:18;97879.09;;;13.61;66.89
5609;BME280;2826;51.354;9.588;2024-02-16T00:43:45;97860.03;;;13.44;67.63
5609;BME280;2826;51.354;9.588;2024-02-16T00:46:13;97864.16;;;13.48;67.86
5609;BME280;2826;51.354;9.588;2024-02-16T00:48:39;97847.19;;;13.41;67.74
5609;BME280;2826;51.354;9.588;2024-02-16T00:51:06;97863.16;;;13.35;68.29
5609;BME280;2826;51.354;9.588;2024-02-16T00:53:32;97860.47;;;13.36;67.85
5609;BME280;2826;51.354;9.588;2024-02-16T00:55:59;97866.69;;;13.33;68.19
5609;BME280;2826;51.354;9.588;2024-02-16T00:58:26;97870.06;;;13.36;67.86
5609;BME280;2826;51.354;9.588;2024-02-16T01:00:53;97863.16;;;13.35;68.19
5609;BME280;2826;51.354;9.588;2024-02-16T01:03:21;97860.06;;;13.28;68.26
5609;BME280;2826;51.354;9.588;2024-02-16T01:05:48;97862.66;;;13.28;68.26
5609;BME280;2826;51.354;9.588;2024-02-16T01:08:15;97866.03;;;13.30;68.04
5609;BME280;2826;51.354;9.588;2024-02-16T01:10:42;97863.59;;;13.27;68.14
5609;BME280;2826;51.354;9.588;2024-02-16T01:13:08;97874.78;;;13.29;68.09
5609;BME280;2826;51.354;9.588;2024-02-16T01:15:35;97868.72;;;13.28;67.93
5609;BME280;2826;51.354;9.588;2024-02-16T01:18:02;97868.78;;;13.27;67.98
5609;BME280;2826;51.354;9.588;2024-02-16T01:20:30;97872.41;;;13.24;67.82
5609;BME280;2826;51.354;9.588;2024-02-16T01:22:57;97848.72;;;13.13;68.04
5609;BME280;2826;51.354;9.588;2024-02-16T01:25:24;97875.50;;;13.31;67.86
5609;BME280;2826;51.354;9.588;2024-02-16T01:27:50;97872.25;;;13.27;68.17
5609;BME280;2826;51.354;9.588;2024-02-16T01:30:17;97869.72;;;13.26;67.93
5609;BME280;2826;51.354;9.588;2024-02-16T01:32:45;97868.94;;;13.24;68.15
5609;BME280;2826;51.354;9.588;2024-02-16T01:35:12;97872.31;;;13.26;68.61
5609;BME280;2826;51.354;9.588;2024-02-16T01:37:41;97867.03;;;13.27;68.42
5609;BME280;2826;51.354;9.588;2024-02-16T01:40:09;97869.56;;;13.29;68.37
5609;BME280;2826;51.354;9.588;2024-02-16T01:42:39;97873.91;;;13.28;68.45
5609;BME280;2826;51.354;9.588;2024-02-16T01:45:07;97871.03;;;13.33;68.48
5609;BME280;2826;51.354;9.588;2024-02-16T01:47:35;97871.03;;;13.33;68.65
5609;BME280;2826;51.354;9.588;2024-02-16T01:50:02;97870.97;;;13.35;68.41
5609;BME280;2826;51.354;9.588;2024-02-16T01:52:30;97870.13;;;13.34;68.25
5609;BME280;2826;51.354;9.588;2024-02-16T01:55:00;97869.38;;;13.32;68.75
5609;BME280;2826;51.354;9.588;2024-02-16T01:57:28;97865.19;;;13.29;68.53
5609;BME280;2826;51.354;9.588;2024-02-16T01:59:55;97865.19;;;13.29;68.81
5609;BME280;2826;51.354;9.588;2024-02-16T02:02:22;97866.69;;;13.33;68.84
5609;BME280;2826;51.354;9.588;2024-02-16T02:04:49;97871.81;;;13.35;68.95
5609;BME280;2826;51.354;9.588;2024-02-16T02:07:16;97879.53;;;13.37;68.59
5609;BME280;2826;51.354;9.588;2024-02-16T02:09:43;97874.16;;;13.40;68.72
5609;BME280;2826;51.354;9.588;2024-02-16T02:12:11;97867.25;;;13.39;68.74
5609;BME280;2826;51.354;9.588;2024-02-16T02:14:37;97867.19;;;13.40;69.16
5609;BME280;2826;51.354;9.588;2024-02-16T02:17:04;97870.78;;;13.38;69.52
5609;BME280;2826;51.354;9.588;2024-02-16T02:19:31;97877.53;;;13.42;68.88
5609;BME280;2826;51.354;9.588;2024-02-16T02:21:58;97870.38;;;13.45;69.37
5609;BME280;2826;51.354;9.588;2024-02-16T02:24:27;97861.88;;;13.42;69.15
5609;BME280;2826;51.354;9.588;2024-02-16T02:26:54;97852.66;;;13.36;68.97
5609;BME280;2826;51.354;9.588;2024-02-16T02:29:22;97864.34;;;13.45;69.20
5609;BME280;2826;51.354;9.588;2024-02-16T02:31:49;97848.78;;;13.43;69.08
5609;BME280;2826;51.354;9.588;2024-02-16T02:34:16;97849.72;;;13.42;69.00
5609;BME280;2826;51.354;9.588;2024-02-16T02:36:42;97838.63;;;13.39;69.29
5609;BME280;2826;51.354;9.588;2024-02-16T02:39:09;97831.91;;;13.35;69.56
5609;BME280;2826;51.354;9.588;2024-02-16T02:41:37;97829.28;;;13.35;69.60
5609;BME280;2826;51.354;9.588;2024-02-16T02:44:04;97830.88;;;13.37;69.34
5609;BME280;2826;51.354;9.588;2024-02-16T02:46:31;97829.88;;;13.40;69.25
5609;BME280;2826;51.354;9.588;2024-02-16T02:48:57;97837.50;;;13.43;69.05
5609;BME280;2826;51.354;9.588;2024-02-16T02:51:24;97845.25;;;13.44;68.80
5609;BME280;2826;51.354;9.588;2024-02-16T02:53:52;97840.13;;;13.43;68.67
5609;BME280;2826;51.354;9.588;2024-02-16T02:56:19;97833.25;;;13.42;68.72
5609;BME280;2826;51.354;9.588;2024-02-16T02:58:47;97823.84;;;13.39;68.78
5609;BME280;2826;51.354;9.588;2024-02-16T03:01:14;97830.81;;;13.39;68.94
5609;BME280;2826;51.354;9.588;2024-02-16T03:03:41;97829.78;;;13.41;68.35
5609;BME280;2826;51.354;9.588;2024-02-16T03:06:08;97825.59;;;13.39;68.20
5609;BME280;2826;51.354;9.588;2024-02-16T03:08:35;97820.06;;;13.45;68.07
5609;BME280;2826;51.354;9.588;2024-02-16T03:11:02;97817.44;;;13.45;67.97
5609;BME280;2826;51.354;9.588;2024-02-16T03:13:30;97819.28;;;13.43;68.12
5609;BME280;2826;51.354;9.588;2024-02-16T03:16:00;97828.19;;;13.39;67.69
5609;BME280;2826;51.354;9.588;2024-02-16T03:18:29;97829.13;;;13.38;67.83
5609;BME280;2826;51.354;9.588;2024-02-16T03:20:56;97822.25;;;13.37;67.99
5609;BME280;2826;51.354;9.588;2024-02-16T03:23:23;97824.00;;;13.36;67.97
5609;BME280;2826;51.354;9.588;2024-02-16T03:25:50;97825.94;;;13.32;67.95
5609;BME280;2826;51.354;9.588;2024-02-16T03:28:17;97823.50;;;13.29;68.32
5609;BME280;2826;51.354;9.588;2024-02-16T03:30:44;97815.78;;;13.28;68.09
5609;BME280;2826;51.354;9.588;2024-02-16T03:33:12;97818.31;;;13.29;68.17
5609;BME280;2826;51.354;9.588;2024-02-16T03:35:39;97824.44;;;13.28;67.79
5609;BME280;2826;51.354;9.588;2024-02-16T03:38:06;97823.50;;;13.29;67.94
5609;BME280;2826;51.354;9.588;2024-02-16T03:40:33;97818.47;;;13.26;67.78
5609;BME280;2826;51.354;9.588;2024-02-16T03:43:00;97817.66;;;13.26;67.81
5609;BME280;2826;51.354;9.588;2024-02-16T03:45:26;97814.28;;;13.24;68.14
5609;BME280;2826;51.354;9.588;2024-02-16T03:47:53;97824.69;;;13.24;68.17
5609;BME280;2826;51.354;9.588;2024-02-16T03:50:21;97829.41;;;13.17;68.22
5609;BME280;2826;51.354;9.588;2024-02-16T03:52:48;97820.94;;;13.13;68.45
5609;BME280;2826;51.354;9.588;2024-02-16T03:55:15;97822.03;;;13.09;68.46
5609;BME280;2826;51.354;9.588;2024-02-16T03:57:42;97821.53;;;13.02;68.43
5609;BME280;2826;51.354;9.588;2024-02-16T04:00:09;97818.28;;;12.99;68.68
5609;BME280;2826;51.354;9.588;2024-02-16T04:02:40;97823.78;;;12.92;69.00
5609;BME280;2826;51.354;9.588;2024-02-16T04:05:07;97818.78;;;12.89;69.31
5609;BME280;2826;51.354;9.588;2024-02-16T04:07:36;97824.88;;;12.88;69.84
5609;BME280;2826;51.354;9.588;2024-02-16T04:10:03;97817.06;;;12.88;69.82
5609;BME280;2826;51.354;9.588;2024-02-16T04:12:29;97817.75;;;12.92;69.89
5609;BME280;2826;51.354;9.588;2024-02-16T04:14:56;97820.19;;;12.95;69.75
5609;BME280;2826;51.354;9.588;2024-02-16T04:17:23;97808.88;;;12.96;69.64
5609;BME280;2826;51.354;9.588;2024-02-16T04:19:49;97821.63;;;13.01;69.30
5609;BME280;2826;51.354;9.588;2024-02-16T04:22:16;97826.66;;;13.04;69.15
5609;BME280;2826;51.354;9.588;2024-02-16T04:24:44;97821.78;;;13.14;68.46
5609;BME280;2826;51.354;9.588;2024-02-16T04:27:11;97823.81;;;13.09;68.98
5609;BME280;2826;51.354;9.588;2024-02-16T04:29:38;97822.53;;;13.16;68.72
5609;BME280;2826;51.354;9.588;2024-02-16T04:32:04;97822.38;;;13.19;68.50
5609;BME280;2826;51.354;9.588;2024-02-16T04:34:31;97826.47;;;13.23;68.31
5609;BME280;2826;51.354;9.588;2024-02-16T04:36:58;97820.50;;;13.21;67.98
5609;BME280;2826;51.354;9.588;2024-02-16T04:39:24;97823.03;;;13.23;67.95
5609;BME280;2826;51.354;9.588;2024-02-16T04:41:52;97824.81;;;13.22;68.43
5609;BME280;2826;51.354;9.588;2024-02-16T04:44:19;97824.03;;;13.20;67.96
5609;BME280;2826;51.354;9.588;2024-02-16T04:46:45;97821.06;;;13.26;68.39
5609;BME280;2826;51.354;9.588;2024-02-16T04:49:12;97818.47;;;13.26;68.20
5609;BME280;2826;51.354;9.588;2024-02-16T04:51:39;97824.38;;;13.30;68.08
5609;BME280;2826;51.354;9.588;2024-02-16T04:54:06;97817.38;;;13.30;68.06
5609;BME280;2826;51.354;9.588;2024-02-16T04:56:33;97809.41;;;13.33;68.14
5609;BME280;2826;51.354;9.588;2024-02-16T04:59:01;97810.97;;;13.36;68.07
5609;BME280;2826;51.354;9.588;2024-02-16T05:01:28;97820.47;;;13.37;67.98
5609;BME280;2826;51.354;9.588;2024-02-16T05:03:55;97828.03;;;13.42;67.89
5609;BME280;2826;51.354;9.588;2024-02-16T05:06:22;97819.44;;;13.40;68.09
5609;BME280;2826;51.354;9.588;2024-02-16T05:08:48;97813.41;;;13.39;67.90
5609;BME280;2826;51.354;9.588;2024-02-16T05:11:15;97818.13;;;13.49;67.40
5609;BME280;2826;51.354;9.588;2024-02-16T05:13:42;97812.00;;;13.50;67.33
5609;BME280;2826;51.354;9.588;2024-02-16T05:16:11;97818.19;;;13.47;67.55
5609;BME280;2826;51.354;9.588;2024-02-16T05:18:37;97812.56;;;13.55;67.43
5609;BME280;2826;51.354;9.588;2024-02-16T05:21:06;97807.25;;;13.56;66.74
5609;BME280;2826;51.354;9.588;2024-02-16T05:23:33;97813.03;;;13.62;66.46
5609;BME280;2826;51.354;9.588;2024-02-16T05:25:59;97807.19;;;13.58;66.54
5609;BME280;2826;51.354;9.588;2024-02-16T05:28:26;97797.22;;;13.50;66.19
5609;BME280;2826;51.354;9.588;2024-02-16T05:30:53;97809.13;;;13.54;66.54
5609;BME280;2826;51.354;9.588;2024-02-16T05:33:21;97809.22;;;13.53;67.11
5609;BME280;2826;51.354;9.588;2024-02-16T05:35:48;97801.41;;;13.53;66.90
5609;BME280;2826;51.354;9.588;2024-02-16T05:38:20;97807.72;;;13.49;66.80
5609;BME280;2826;51.354;9.588;2024-02-16T05:40:57;97797.44;;;13.45;67.14
5609;BME280;2826;51.354;9.588;2024-02-16T05:43:24;97804.59;;;13.42;67.71
5609;BME280;2826;51.354;9.588;2024-02-16T05:45:50;97800.75;;;13.49;67.46
5609;BME280;2826;51.354;9.588;2024-02-16T05:48:17;97797.13;;;13.52;67.29
5609;BME280;2826;51.354;9.588;2024-02-16T05:50:46;97802.13;;;13.55;67.28
5609;BME280;2826;51.354;9.588;2024-02-16T05:53:13;97799.63;;;13.53;67.25
5609;BME280;2826;51.354;9.588;2024-02-16T05:55:39;97791.56;;;13.58;67.57
5609;BME280;2826;51.354;9.588;2024-02-16T05:58:06;97800.13;;;13.60;67.64
5609;BME280;2826;51.354;9.588;2024-02-16T06:00:34;97796.59;;;13.61;67.90
5609;BME280;2826;51.354;9.588;2024-02-16T06:03:00;97776.50;;;13.47;67.73
5609;BME280;2826;51.354;9.588;2024-02-16T06:05:28;97799.13;;;13.63;67.93
5609;BME280;2826;51.354;9.588;2024-02-16T06:07:56;97804.13;;;13.66;67.58
5609;BME280;2826;51.354;9.588;2024-02-16T06:10:24;97809.16;;;13.69;68.01
5609;BME280;2826;51.354;9.588;2024-02-16T06:12:51;97812.72;;;13.68;67.80
5609;BME280;2826;51.354;9.588;2024-02-16T06:15:17;97804.13;;;13.66;68.27
5609;BME280;2826;51.354;9.588;2024-02-16T06:17:44;97812.72;;;13.68;68.18
5609;BME280;2826;51.354;9.588;2024-02-16T06:20:11;97797.56;;;13.75;68.04
5609;BME280;2826;51.354;9.588;2024-02-16T06:22:38;97805.94;;;13.80;67.78
5609;BME280;2826;51.354;9.588;2024-02-16T06:25:07;97792.91;;;13.80;68.15
5609;BME280;2826;51.354;9.588;2024-02-16T06:27:34;97785.94;;;13.80;67.91
5609;BME280;2826;51.354;9.588;2024-02-16T06:30:02;97779.03;;;13.79;68.31
5609;BME280;2826;51.354;9.588;2024-02-16T06:32:29;97774.84;;;13.77;68.59
5609;BME280;2826;51.354;9.588;2024-02-16T06:34:56;97777.53;;;13.75;68.93
5609;BME280;2826;51.354;9.588;2024-02-16T06:37:23;97752.78;;;13.68;69.16
5609;BME280;2826;51.354;9.588;2024-02-16T06:39:50;97753.25;;;13.75;68.68
5609;BME280;2826;51.354;9.588;2024-02-16T06:42:18;97763.94;;;13.84;68.89
5609;BME280;2826;51.354;9.588;2024-02-16T06:44:45;97781.28;;;13.85;68.37
5609;BME280;2826;51.354;9.588;2024-02-16T06:47:11;97801.84;;;13.90;68.33
5609;BME280;2826;51.354;9.588;2024-02-16T06:49:38;97811.72;;;14.00;67.80
5609;BME280;2826;51.354;9.588;2024-02-16T06:52:05;97816.13;;;13.99;67.89
5609;BME280;2826;51.354;9.588;2024-02-16T06:54:32;97831.47;;;14.04;68.22
5609;BME280;2826;51.354;9.588;2024-02-16T06:56:59;97832.31;;;14.04;68.12
5609;BME280;2826;51.354;9.588;2024-02-16T06:59:28;97835.19;;;14.00;68.38
5609;BME280;2826;51.354;9.588;2024-02-16T07:01:54;97831.28;;;13.92;68.49
5609;BME280;2826;51.354;9.588;2024-02-16T07:04:21;97831.72;;;13.84;68.86
5609;BME280;2826;51.354;9.588;2024-02-16T07:06:47;97840.75;;;13.79;69.18
5609;BME280;2826;51.354;9.588;2024-02-16T07:09:15;97849.47;;;13.78;69.21
5609;BME280;2826;51.354;9.588;2024-02-16T07:11:42;97849.25;;;13.66;70.04
5609;BME280;2826;51.354;9.588;2024-02-16T07:14:12;97846.09;;;13.61;69.72
5609;BME280;2826;51.354;9.588;2024-02-16T07:16:40;97836.19;;;13.52;70.22
5609;BME280;2826;51.354;9.588;2024-02-16T07:19:07;97842.00;;;13.41;70.52
5609;BME280;2826;51.354;9.588;2024-02-16T07:21:34;97846.25;;;13.42;71.30
5609;BME280;2826;51.354;9.588;2024-02-16T07:24:00;97852.50;;;13.39;70.89
5609;BME280;2826;51.354;9.588;2024-02-16T07:26:27;97845.59;;;13.38;71.05
5609;BME280;2826;51.354;9.588;2024-02-16T07:28:54;97849.22;;;13.36;71.18
5609;BME280;2826;51.354;9.588;2024-02-16T07:31:21;97857.03;;;13.36;71.50
5609;BME280;2826;51.354;9.588;2024-02-16T07:33:49;97850.31;;;13.31;72.21
5609;BME280;2826;51.354;9.588;2024-02-16T07:36:16;97838.56;;;13.24;72.33
5609;BME280;2826;51.354;9.588;2024-02-16T07:38:44;97848.81;;;13.27;72.82
5609;BME280;2826;51.354;9.588;2024-02-16T07:41:11;97847.97;;;13.27;72.97
5609;BME280;2826;51.354;9.588;2024-02-16T07:43:38;97847.88;;;13.28;73.15
5609;BME280;2826;51.354;9.588;2024-02-16T07:46:04;97854.03;;;13.27;73.14
5609;BME280;2826;51.354;9.588;2024-02-16T07:48:31;97858.88;;;13.33;73.31
5609;BME280;2826;51.354;9.588;2024-02-16T07:50:59;97856.34;;;13.32;73.36
5609;BME280;2826;51.354;9.588;2024-02-16T07:53:28;97853.00;;;13.30;73.82
5609;BME280;2826;51.354;9.588;2024-02-16T07:55:54;97857.44;;;13.28;74.54
5609;BME280;2826;51.354;9.588;2024-02-16T07:58:21;97854.53;;;13.34;74.25
5609;BME280;2826;51.354;9.588;2024-02-16T08:00:47;97853.59;;;13.35;74.54
5609;BME280;2826;51.354;9.588;2024-02-16T08:03:14;97849.22;;;13.36;74.82
5609;BME280;2826;51.354;9.588;2024-02-16T08:05:41;97860.97;;;13.43;74.66
5609;BME280;2826;51.354;9.588;2024-02-16T08:08:09;97856.34;;;13.48;74.47
5609;BME280;2826;51.354;9.588;2024-02-16T08:10:35;97862.91;;;13.55;74.03
5609;BME280;2826;51.354;9.588;2024-02-16T08:13:02;97865.91;;;13.64;73.20
5609;BME280;2826;51.354;9.588;2024-02-16T08:15:29;97861.09;;;13.72;73.02
5609;BME280;2826;51.354;9.588;2024-02-16T08:17:56;97870.44;;;13.76;72.33
5609;BME280;2826;51.354;9.588;2024-02-16T08:20:23;97868.66;;;13.91;72.02
5609;BME280;2826;51.354;9.588;2024-02-16T08:22:50;97865.66;;;13.99;71.92
5609;BME280;2826;51.354;9.588;2024-02-16T08:25:18;97871.72;;;14.14;70.99
5609;BME280;2826;51.354;9.588;2024-02-16T08:27:45;97870.06;;;14.28;70.53
5609;BME280;2826;51.354;9.588;2024-02-16T08:30:12;97867.63;;;14.39;70.26
5609;BME280;2826;51.354;9.588;2024-02-16T08:32:39;97870.34;;;14.52;69.98
5609;BME280;2826;51.354;9.588;2024-02-16T08:35:06;97871.53;;;14.75;68.97
5609;BME280;2826;51.354;9.588;2024-02-16T08:37:33;97884.63;;;14.90;67.92
5609;BME280;2826;51.354;9.588;2024-02-16T08:40:00;97884.22;;;14.96;67.59
5609;BME280;2826;51.354;9.588;2024-02-16T08:42:30;97885.09;;;14.97;67.51
5609;BME280;2826;51.354;9.588;2024-02-16T08:44:57;97890.94;;;15.00;67.13
5609;BME280;2826;51.354;9.588;2024-02-16T08:47:25;97896.63;;;15.07;66.74
5609;BME280;2826;51.354;9.588;2024-02-16T08:49:52;97897.91;;;15.14;66.47
5609;BME280;2826;51.354;9.588;2024-02-16T08:52:18;97896.22;;;15.13;66.53
5609;BME280;2826;51.354;9.588;2024-02-16T08:54:45;97898.81;;;15.13;66.53
5609;BME280;2826;51.354;9.588;2024-02-16T08:57:12;97895.66;;;15.08;66.71
5609;BME280;2826;51.354;9.588;2024-02-16T08:59:40;97899.41;;;15.04;66.51
5609;BME280;2826;51.354;9.588;2024-02-16T09:02:07;97900.63;;;14.98;66.75
5609;BME280;2826;51.354;9.588;2024-02-16T09:04:34;97898.88;;;14.99;66.55
5609;BME280;2826;51.354;9.588;2024-02-16T09:07:00;97898.78;;;15.00;66.73
5609;BME280;2826;51.354;9.588;2024-02-16T09:09:27;97905.56;;;15.03;66.50
5609;BME280;2826;51.354;9.588;2024-02-16T09:11:54;97909.22;;;15.00;65.85
5609;BME280;2826;51.354;9.588;2024-02-16T09:14:21;97918.00;;;14.99;65.75
5609;BME280;2826;51.354;9.588;2024-02-16T09:16:50;97913.88;;;14.95;66.13
5609;BME280;2826;51.354;9.588;2024-02-16T09:19:17;97909.78;;;14.91;66.33
5609;BME280;2826;51.354;9.588;2024-02-16T09:21:45;97903.81;;;14.89;66.25
5609;BME280;2826;51.354;9.588;2024-02-16T09:24:11;97903.00;;;14.88;65.96
5609;BME280;2826;51.354;9.588;2024-02-16T09:26:43;97913.53;;;14.87;65.86
5609;BME280;2826;51.354;9.588;2024-02-16T09:29:11;97909.78;;;14.91;64.87
5609;BME280;2826;51.354;9.588;2024-02-16T09:31:38;97908.78;;;14.79;65.14
5609;BME280;2826;51.354;9.588;2024-02-16T09:34:06;97910.59;;;14.92;64.59
5609;BME280;2826;51.354;9.588;2024-02-16T09:36:33;97913.03;;;14.95;63.85
5609;BME280;2826;51.354;9.588;2024-02-16T09:39:02;97912.00;;;14.97;63.61
5609;BME280;2826;51.354;9.588;2024-02-16T09:41:28;97919.13;;;15.23;63.06
5609;BME280;2826;51.354;9.588;2024-02-16T09:43:55;97912.22;;;15.36;62.16
5609;BME280;2826;51.354;9.588;2024-02-16T09:46:23;97911.06;;;15.40;61.94
5609;BME280;2826;51.354;9.588;2024-02-16T09:48:50;97908.28;;;15.44;61.45
5609;BME280;2826;51.354;9.588;2024-02-16T09:51:19;97913.94;;;15.50;61.34
5609;BME280;2826;51.354;9.588;2024-02-16T09:53:50;97901.63;;;15.52;60.72
5609;BME280;2826;51.354;9.588;2024-02-16T09:56:19;97906.16;;;15.63;60.71
5609;BME280;2826;51.354;9.588;2024-02-16T09:58:45;97907.34;;;15.72;60.04
5609;BME280;2826;51.354;9.588;2024-02-16T10:01:17;97905.06;;;15.80;60.42
5609;BME280;2826;51.354;9.588;2024-02-16T10:03:44;97901.41;;;15.83;60.10
5609;BME280;2826;51.354;9.588;2024-02-16T10:06:11;97901.41;;;15.83;59.82
5609;BME280;2826;51.354;9.588;2024-02-16T10:08:48;97898.53;;;15.73;59.05
5609;BME280;2826;51.354;9.588;2024-02-16T10:11:16;97895.66;;;15.78;59.17
5609;BME280;2826;51.354;9.588;2024-02-16T10:13:53;97898.78;;;15.83;59.44
5609;BME280;2826;51.354;9.588;2024-02-16T10:16:20;97908.56;;;15.94;59.23
5609;BME280;2826;51.354;9.588;2024-02-16T10:18:46;97896.75;;;16.01;58.78
5609;BME280;2826;51.354;9.588;2024-02-16T10:21:13;97893.66;;;16.09;58.52
5609;BME280;2826;51.354;9.588;2024-02-16T10:23:40;97895.31;;;16.10;58.48
5609;BME280;2826;51.354;9.588;2024-02-16T10:26:07;97892.91;;;16.07;58.83
5609;BME280;2826;51.354;9.588;2024-02-16T10:28:34;97867.41;;;15.83;58.70
5609;BME280;2826;51.354;9.588;2024-02-16T10:31:01;97896.97;;;16.11;58.44
5609;BME280;2826;51.354;9.588;2024-02-16T10:33:28;97908.63;;;16.20;57.83
5609;BME280;2826;51.354;9.588;2024-02-16T10:35:56;97912.28;;;16.30;57.95
5609;BME280;2826;51.354;9.588;2024-02-16T10:38:25;97908.94;;;16.41;57.63
5609;BME280;2826;51.354;9.588;2024-02-16T10:40:53;97915.72;;;16.57;57.97
5609;BME280;2826;51.354;9.588;2024-02-16T10:43:21;97911.66;;;16.66;57.47
5609;BME280;2826;51.354;9.588;2024-02-16T10:45:49;97911.09;;;16.87;56.93
5609;BME280;2826;51.354;9.588;2024-02-16T10:48:18;97912.47;;;17.05;56.61
5609;BME280;2826;51.354;9.588;2024-02-16T10:50:45;97918.75;;;17.03;55.61
5609;BME280;2826;51.354;9.588;2024-02-16T10:53:15;97922.94;;;16.92;55.82
5609;BME280;2826;51.354;9.588;2024-02-16T10:55:44;97917.06;;;16.89;55.77
5609;BME280;2826;51.354;9.588;2024-02-16T10:58:11;97911.75;;;16.77;55.81
5609;BME280;2826;51.354;9.588;2024-02-16T11:00:51;97908.72;;;16.70;56.50
5609;BME280;2826;51.354;9.588;2024-02-16T11:03:21;97922.94;;;16.66;56.90
5609;BME280;2826;51.354;9.588;2024-02-16T11:05:49;97921.28;;;16.65;57.24
5609;BME280;2826;51.354;9.588;2024-02-16T11:08:17;97923.38;;;16.60;56.97
5609;BME280;2826;51.354;9.588;2024-02-16T11:10:54;97937.00;;;16.65;57.02
5609;BME280;2826;51.354;9.588;2024-02-16T11:13:22;97927.25;;;16.67;56.91
5609;BME280;2826;51.354;9.588;2024-02-16T11:15:56;97933.63;;;16.76;56.72
5609;BME280;2826;51.354;9.588;2024-02-16T11:18:23;97939.38;;;16.81;56.43
5609;BME280;2826;51.354;9.588;2024-02-16T11:20:50;97928.00;;;16.82;56.16
5609;BME280;2826;51.354;9.588;2024-02-16T11:23:16;97929.63;;;16.96;56.42
5609;BME280;2826;51.354;9.588;2024-02-16T11:25:49;97935.03;;;16.69;56.05
5609;BME280;2826;51.354;9.588;2024-02-16T11:28:18;97932.59;;;16.53;56.79
5609;BME280;2826;51.354;9.588;2024-02-16T11:30:45;97936.78;;;16.68;56.42
5609;BME280;2826;51.354;9.588;2024-02-16T11:33:13;97921.09;;;16.55;56.33
5609;BME280;2826;51.354;9.588;2024-02-16T11:35:39;97925.91;;;16.49;56.95
5609;BME280;2826;51.354;9.588;2024-02-16T11:38:06;97932.78;;;16.37;57.10
5609;BME280;2826;51.354;9.588;2024-02-16T11:40:33;97930.94;;;16.39;57.31
5609;BME280;2826;51.354;9.588;2024-02-16T11:43:00;97939.28;;;16.31;57.61
5609;BME280;2826;51.354;9.588;2024-02-16T11:45:27;97929.75;;;16.30;57.97
5609;BME280;2826;51.354;9.588;2024-02-16T11:48:04;97932.16;;;16.33;57.61
5609;BME280;2826;51.354;9.588;2024-02-16T11:50:32;97930.69;;;16.29;57.94
5609;BME280;2826;51.354;9.588;2024-02-16T11:52:58;97936.34;;;16.23;58.06
5609;BME280;2826;51.354;9.588;2024-02-16T11:55:25;97933.41;;;16.14;59.37
5609;BME280;2826;51.354;9.588;2024-02-16T11:57:51;97933.84;;;16.21;59.71
5609;BME280;2826;51.354;9.588;2024-02-16T12:00:20;97933.41;;;16.14;60.24
5609;BME280;2826;51.354;9.588;2024-02-16T12:02:46;97923.56;;;16.18;61.08
5609;BME280;2826;51.354;9.588;2024-02-16T12:05:14;97915.81;;;16.16;61.23
5609;BME280;2826;51.354;9.588;2024-02-16T12:07:42;97929.22;;;16.12;61.65
5609;BME280;2826;51.354;9.588;2024-02-16T12:10:10;97926.06;;;16.06;62.59
5609;BME280;2826;51.354;9.588;2024-02-16T12:12:37;97935.06;;;16.02;62.98
5609;BME280;2826;51.354;9.588;2024-02-16T12:15:05;97933.78;;;16.08;63.18
5609;BME280;2826;51.354;9.588;2024-02-16T12:17:33;97924.59;;;16.02;63.53
5609;BME280;2826;51.354;9.588;2024-02-16T12:19:59;97935.78;;;16.04;63.49
5609;BME280;2826;51.354;9.588;2024-02-16T12:22:27;97949.63;;;16.06;63.89
5609;BME280;2826;51.354;9.588;2024-02-16T12:24:56;97948.03;;;16.04;64.13
5609;BME280;2826;51.354;9.588;2024-02-16T12:27:22;97947.59;;;15.97;64.65
5609;BME280;2826;51.354;9.588;2024-02-16T12:29:49;97943.00;;;16.01;65.01
5609;BME280;2826;51.354;9.588;2024-02-16T12:32:15;97952.22;;;16.06;64.26
5609;BME280;2826;51.354;9.588;2024-02-16T12:34:44;97946.25;;;16.04;64.47
5609;BME280;2826;51.354;9.588;2024-02-16T12:37:10;97950.34;;;16.09;64.92
5609;BME280;2826;51.354;9.588;2024-02-16T12:39:37;97951.66;;;16.01;65.99
5609;BME280;2826;51.354;9.588;2024-02-16T12:42:06;97948.91;;;15.90;65.96
5609;BME280;2826;51.354;9.588;2024-02-16T12:44:33;97949.84;;;15.89;66.37
5609;BME280;2826;51.354;9.588;2024-02-16T12:47:00;97949.41;;;15.82;67.10
5609;BME280;2826;51.354;9.588;2024-02-16T12:49:27;97947.53;;;15.84;66.69
5609;BME280;2826;51.354;9.588;2024-02-16T12:51:53;97945.75;;;15.85;67.20
5609;BME280;2826;51.354;9.588;2024-02-16T12:54:20;97948.47;;;15.83;68.27
5609;BME280;2826;51.354;9.588;2024-02-16T12:56:48;97945.53;;;15.88;68.29
5609;BME280;2826;51.354;9.588;2024-02-16T12:59:16;97948.06;;;15.89;68.17
5609;BME280;2826;51.354;9.588;2024-02-16T13:01:43;97952.34;;;15.90;68.68
5609;BME280;2826;51.354;9.588;2024-02-16T13:04:11;97956.63;;;16.19;67.91
5609;BME280;2826;51.354;9.588;2024-02-16T13:06:38;97961.31;;;16.67;65.53
5609;BME280;2826;51.354;9.588;2024-02-16T13:09:05;97966.53;;;16.67;65.47
5609;BME280;2826;51.354;9.588;2024-02-16T13:11:33;97968.09;;;16.57;65.26
5609;BME280;2826;51.354;9.588;2024-02-16T13:14:00;97967.88;;;16.60;65.33
5609;BME280;2826;51.354;9.588;2024-02-16T13:16:28;97971.34;;;16.61;65.32
5609;BME280;2826;51.354;9.588;2024-02-16T13:18:55;97953.66;;;16.51;65.26
5609;BME280;2826;51.354;9.588;2024-02-16T13:21:22;97968.63;;;16.62;65.46
5609;BME280;2826;51.354;9.588;2024-02-16T13:23:48;97972.59;;;16.55;65.00